Terminal Aerodrome Forecast
Issued by NWS

Home | Current Version | Previous Version | Text Only | Print | Product List | Glossary On
Versions: 1 2 3 4 5 6 7 8 9 10 11 12 13 14 15 16
000
FTUS43 KMPX 191100
TAFAXN
TAF
KAXN 191120Z 1912/2012 15022G32KT P6SM VCSH SCT050 OVC080
      TEMPO 1912/1914 6SM -SHRA BKN050
     FM191500 19016G26KT P6SM SCT040 BKN090
     FM191900 23013KT P6SM SCT100
     FM200000 26005KT P6SM SKC
     FM200800 30005KT P6SM SKC=

USA.gov is the U.S. government's official web portal to all federal, state and local government web resources and services.